sensor_id;sensor_type;location;lat;lon;timestamp;pressure;altitude;pressure_sealevel;temperature;humidity
58467;BME280;44255;49.244;7.726;2022-11-04T04:33:12;97380.84;;;9.22;100.00
58467;BME280;44255;49.244;7.726;2022-11-04T04:35:46;97385.97;;;9.27;100.00
58467;BME280;44255;49.244;7.726;2022-11-04T04:41:30;97387.69;;;9.28;100.00
58467;BME280;44255;49.244;7.726;2022-11-04T04:44:20;97386.59;;;9.32;100.00
58467;BME280;44255;49.244;7.726;2022-11-04T04:47:06;97384.75;;;9.34;100.00
58467;BME280;44255;49.244;7.726;2022-11-04T04:49:31;97398.81;;;9.36;100.00
58467;BME280;44255;49.244;7.726;2022-11-04T04:52:00;97389.75;;;9.41;100.00
58467;BME280;44255;49.244;7.726;2022-11-04T04:54:26;97393.25;;;9.41;100.00
58467;BME280;44255;49.244;7.726;2022-11-04T04:56:51;97389.91;;;9.37;100.00
58467;BME280;44255;49.244;7.726;2022-11-04T04:59:17;97395.06;;;9.41;100.00
58467;BME280;44255;49.244;7.726;2022-11-04T05:01:42;97399.38;;;9.43;100.00
58467;BME280;44255;49.244;7.726;2022-11-04T05:04:07;97400.31;;;9.42;100.00
58467;BME280;44255;49.244;7.726;2022-11-04T05:06:32;97386.88;;;9.45;100.00
58467;BME280;44255;49.244;7.726;2022-11-04T05:08:58;97382.56;;;9.43;100.00
58467;BME280;44255;49.244;7.726;2022-11-04T05:11:23;97382.25;;;9.49;100.00
58467;BME280;44255;49.244;7.726;2022-11-04T05:13:48;97389.88;;;9.57;100.00
58467;BME280;44255;49.244;7.726;2022-11-04T05:16:13;97397.91;;;9.55;100.00
58467;BME280;44255;49.244;7.726;2022-11-04T05:18:39;97396.22;;;9.54;100.00
58467;BME280;44255;49.244;7.726;2022-11-04T05:21:06;97389.19;;;9.53;100.00
58467;BME280;44255;49.244;7.726;2022-11-04T05:23:33;97383.97;;;9.50;100.00
58467;BME280;44255;49.244;7.726;2022-11-04T05:25:59;97388.44;;;9.49;100.00
58467;BME280;44255;49.244;7.726;2022-11-04T05:28:24;97372.47;;;9.51;100.00
58467;BME280;44255;49.244;7.726;2022-11-04T05:30:49;97385.00;;;9.47;100.00
58467;BME280;44255;49.244;7.726;2022-11-04T05:33:15;97371.31;;;9.37;100.00
58467;BME280;44255;49.244;7.726;2022-11-04T05:35:40;97366.44;;;9.47;100.00
58467;BME280;44255;49.244;7.726;2022-11-04T05:38:05;97352.22;;;9.48;100.00
58467;BME280;44255;49.244;7.726;2022-11-04T05:40:30;97359.47;;;9.45;100.00
58467;BME280;44255;49.244;7.726;2022-11-04T05:42:57;97353.22;;;9.46;100.00
58467;BME280;44255;49.244;7.726;2022-11-04T05:45:23;97354.09;;;9.46;100.00
58467;BME280;44255;49.244;7.726;2022-11-04T05:47:56;97342.34;;;9.33;100.00
58467;BME280;44255;49.244;7.726;2022-11-04T05:50:21;97341.41;;;9.34;100.00
58467;BME280;44255;49.244;7.726;2022-11-04T05:52:46;97337.75;;;9.36;100.00
58467;BME280;44255;49.244;7.726;2022-11-04T05:55:11;97333.59;;;9.31;100.00
58467;BME280;44255;49.244;7.726;2022-11-04T05:57:37;97331.94;;;9.28;100.00
58467;BME280;44255;49.244;7.726;2022-11-04T06:00:03;97343.84;;;9.19;100.00
58467;BME280;44255;49.244;7.726;2022-11-04T06:02:28;97333.38;;;9.16;100.00
58467;BME280;44255;49.244;7.726;2022-11-04T06:04:53;97342.22;;;9.17;100.00
58467;BME280;44255;49.244;7.726;2022-11-04T06:07:18;97346.59;;;9.18;100.00
58467;BME280;44255;49.244;7.726;2022-11-04T06:09:43;97348.16;;;9.22;100.00
58467;BME280;44255;49.244;7.726;2022-11-04T06:12:11;97351.03;;;9.17;100.00
58467;BME280;44255;49.244;7.726;2022-11-04T06:14:41;97351.47;;;9.08;100.00
58467;BME280;44255;49.244;7.726;2022-11-04T06:17:07;97345.16;;;9.10;100.00
58467;BME280;44255;49.244;7.726;2022-11-04T06:19:32;97356.63;;;9.11;100.00
58467;BME280;44255;49.244;7.726;2022-11-04T06:21:58;97345.44;;;9.04;100.00
58467;BME280;44255;49.244;7.726;2022-11-04T06:24:24;97347.94;;;9.07;100.00
58467;BME280;44255;49.244;7.726;2022-11-04T06:26:49;97348.16;;;9.03;100.00
58467;BME280;44255;49.244;7.726;2022-11-04T06:29:14;97358.97;;;8.98;100.00
58467;BME280;44255;49.244;7.726;2022-11-04T06:31:40;97349.03;;;9.03;100.00
58467;BME280;44255;49.244;7.726;2022-11-04T06:34:05;97349.25;;;8.99;100.00
58467;BME280;44255;49.244;7.726;2022-11-04T06:36:30;97358.78;;;9.03;100.00
58467;BME280;44255;49.244;7.726;2022-11-04T06:38:55;97362.22;;;9.05;100.00
58467;BME280;44255;49.244;7.726;2022-11-04T06:41:21;97350.53;;;9.09;100.00
58467;BME280;44255;49.244;7.726;2022-11-04T06:43:46;97357.41;;;9.13;100.00
58467;BME280;44255;49.244;7.726;2022-11-04T06:46:30;97363.47;;;9.17;100.00
58467;BME280;44255;49.244;7.726;2022-11-04T06:48:57;97363.22;;;9.21;100.00
58467;BME280;44255;49.244;7.726;2022-11-04T06:51:23;97362.53;;;9.18;100.00
58467;BME280;44255;49.244;7.726;2022-11-04T06:53:49;97362.44;;;9.19;100.00
58467;BME280;44255;49.244;7.726;2022-11-04T06:56:14;97365.09;;;9.19;100.00
58467;BME280;44255;49.244;7.726;2022-11-04T06:58:39;97362.44;;;9.19;100.00
58467;BME280;44255;49.244;7.726;2022-11-04T07:01:05;97359.78;;;9.19;100.00
58467;BME280;44255;49.244;7.726;2022-11-04T07:03:30;97363.47;;;9.17;100.00
58467;BME280;44255;49.244;7.726;2022-11-04T07:05:55;97369.97;;;9.09;100.00
58467;BME280;44255;49.244;7.726;2022-11-04T07:08:21;97372.25;;;9.17;100.00
58467;BME280;44255;49.244;7.726;2022-11-04T07:10:46;97374.72;;;9.22;100.00
58467;BME280;44255;49.244;7.726;2022-11-04T07:13:11;97371.19;;;9.21;100.00
58467;BME280;44255;49.244;7.726;2022-11-04T07:15:37;97377.56;;;9.17;100.00
58467;BME280;44255;49.244;7.726;2022-11-04T07:18:03;97381.16;;;9.16;100.00
58467;BME280;44255;49.244;7.726;2022-11-04T07:20:28;97388.19;;;9.17;100.00
58467;BME280;44255;49.244;7.726;2022-11-04T07:22:54;97393.63;;;9.14;100.00
58467;BME280;44255;49.244;7.726;2022-11-04T07:25:19;97395.50;;;9.12;100.00
58467;BME280;44255;49.244;7.726;2022-11-04T07:27:44;97397.28;;;9.11;100.00
58467;BME280;44255;49.244;7.726;2022-11-04T07:30:10;97410.28;;;9.18;100.00
58467;BME280;44255;49.244;7.726;2022-11-04T07:32:35;97410.28;;;9.18;100.00
58467;BME280;44255;49.244;7.726;2022-11-04T07:35:00;97415.34;;;9.22;100.00
58467;BME280;44255;49.244;7.726;2022-11-04T07:37:26;97405.56;;;9.24;100.00
58467;BME280;44255;49.244;7.726;2022-11-04T07:39:51;97409.94;;;9.25;100.00
58467;BME280;44255;49.244;7.726;2022-11-04T07:42:16;97410.88;;;9.24;100.00
58467;BME280;44255;49.244;7.726;2022-11-04T07:44:42;97401.53;;;9.35;100.00
58467;BME280;44255;49.244;7.726;2022-11-04T07:47:07;97399.06;;;9.49;100.00
58467;BME280;44255;49.244;7.726;2022-11-04T07:49:32;97389.03;;;9.56;100.00
58467;BME280;44255;49.244;7.726;2022-11-04T07:51:57;97379.50;;;9.52;100.00
58467;BME280;44255;49.244;7.726;2022-11-04T07:54:23;97386.84;;;9.64;100.00
58467;BME280;44255;49.244;7.726;2022-11-04T07:56:48;97376.31;;;9.63;100.00
58467;BME280;44255;49.244;7.726;2022-11-04T07:59:13;97375.84;;;9.72;100.00
58467;BME280;44255;49.244;7.726;2022-11-04T08:01:38;97375.69;;;9.75;100.00
58467;BME280;44255;49.244;7.726;2022-11-04T08:04:04;97374.22;;;9.70;100.00
58467;BME280;44255;49.244;7.726;2022-11-04T08:06:31;97376.00;;;9.69;100.00
58467;BME280;44255;49.244;7.726;2022-11-04T08:08:57;97370.88;;;9.84;100.00
58467;BME280;44255;49.244;7.726;2022-11-04T08:11:23;97372.91;;;9.78;100.00
58467;BME280;44255;49.244;7.726;2022-11-04T08:13:49;97374.13;;;9.89;100.00
58467;BME280;44255;49.244;7.726;2022-11-04T08:16:17;97372.25;;;9.91;100.00
58467;BME280;44255;49.244;7.726;2022-11-04T08:18:44;97371.81;;;10.00;100.00
58467;BME280;44255;49.244;7.726;2022-11-04T08:21:10;97375.41;;;9.99;100.00
58467;BME280;44255;49.244;7.726;2022-11-04T08:23:35;97367.66;;;9.94;100.00
58467;BME280;44255;49.244;7.726;2022-11-04T08:26:06;97372.97;;;9.94;100.00
58467;BME280;44255;49.244;7.726;2022-11-04T08:28:32;97374.84;;;9.75;100.00
58467;BME280;44255;49.244;7.726;2022-11-04T08:30:59;97364.84;;;9.80;100.00
58467;BME280;44255;49.244;7.726;2022-11-04T08:33:27;97366.94;;;9.91;100.00
58467;BME280;44255;49.244;7.726;2022-11-04T08:35:54;97372.53;;;10.04;100.00
58467;BME280;44255;49.244;7.726;2022-11-04T08:38:20;97369.63;;;10.08;100.00
58467;BME280;44255;49.244;7.726;2022-11-04T08:40:46;97367.84;;;10.09;100.00
58467;BME280;44255;49.244;7.726;2022-11-04T08:43:11;97374.00;;;10.09;100.00
58467;BME280;44255;49.244;7.726;2022-11-04T08:45:45;97372.66;;;10.18;100.00
58467;BME280;44255;49.244;7.726;2022-11-04T08:48:11;97369.78;;;10.23;100.00
58467;BME280;44255;49.244;7.726;2022-11-04T08:50:37;97358.13;;;10.25;100.00
58467;BME280;44255;49.244;7.726;2022-11-04T08:53:03;97341.41;;;10.23;100.00
58467;BME280;44255;49.244;7.726;2022-11-04T08:55:29;97362.19;;;10.33;100.00
58467;BME280;44255;49.244;7.726;2022-11-04T08:57:55;97358.44;;;10.37;100.00
58467;BME280;44255;49.244;7.726;2022-11-04T09:00:20;97356.72;;;10.36;100.00
58467;BME280;44255;49.244;7.726;2022-11-04T09:02:46;97361.00;;;10.38;100.00
58467;BME280;44255;49.244;7.726;2022-11-04T09:05:11;97352.25;;;10.36;99.35
58467;BME280;44255;49.244;7.726;2022-11-04T09:07:38;97357.41;;;10.39;99.57
58467;BME280;44255;49.244;7.726;2022-11-04T09:10:04;97358.28;;;10.40;100.00
58467;BME280;44255;49.244;7.726;2022-11-04T09:12:30;97359.78;;;10.46;100.00
58467;BME280;44255;49.244;7.726;2022-11-04T09:14:55;97362.50;;;10.62;100.00
58467;BME280;44255;49.244;7.726;2022-11-04T09:17:20;97366.97;;;10.61;98.24
58467;BME280;44255;49.244;7.726;2022-11-04T09:19:46;97367.47;;;10.68;98.80
58467;BME280;44255;49.244;7.726;2022-11-04T09:22:11;97364.72;;;10.53;100.00
58467;BME280;44255;49.244;7.726;2022-11-04T09:24:36;97359.91;;;10.25;99.05
58467;BME280;44255;49.244;7.726;2022-11-04T09:27:03;97366.66;;;10.32;98.43
58467;BME280;44255;49.244;7.726;2022-11-04T09:29:29;97366.66;;;10.32;98.64
58467;BME280;44255;49.244;7.726;2022-11-04T09:31:57;97369.22;;;10.51;100.00
58467;BME280;44255;49.244;7.726;2022-11-04T09:34:23;97367.81;;;10.62;98.53
58467;BME280;44255;49.244;7.726;2022-11-04T09:36:48;97367.75;;;10.63;99.33
58467;BME280;44255;49.244;7.726;2022-11-04T09:39:13;97376.16;;;10.72;98.05
58467;BME280;44255;49.244;7.726;2022-11-04T09:47:01;97380.09;;;10.64;99.23
58467;BME280;44255;49.244;7.726;2022-11-04T09:49:32;97388.91;;;10.65;99.49
58467;BME280;44255;49.244;7.726;2022-11-04T09:52:01;97388.38;;;10.58;100.00
58467;BME280;44255;49.244;7.726;2022-11-04T09:54:40;97390.38;;;10.55;100.00
58467;BME280;44255;49.244;7.726;2022-11-04T09:57:14;97396.75;;;10.50;100.00
58467;BME280;44255;49.244;7.726;2022-11-04T09:59:40;97396.34;;;10.23;100.00
58467;BME280;44255;49.244;7.726;2022-11-04T10:02:26;97404.34;;;10.41;100.00
58467;BME280;44255;49.244;7.726;2022-11-04T10:05:18;97405.63;;;10.51;100.00
58467;BME280;44255;49.244;7.726;2022-11-04T10:13:45;97418.56;;;10.75;100.00
58467;BME280;44255;49.244;7.726;2022-11-04T10:19:10;97414.59;;;10.66;100.00
58467;BME280;44255;49.244;7.726;2022-11-04T10:24:53;97409.03;;;10.71;100.00
58467;BME280;44255;49.244;7.726;2022-11-04T10:27:26;97409.75;;;10.74;100.00
58467;BME280;44255;49.244;7.726;2022-11-04T10:29:57;97403.22;;;10.80;100.00
58467;BME280;44255;49.244;7.726;2022-11-04T10:32:28;97402.28;;;10.81;100.00
58467;BME280;44255;49.244;7.726;2022-11-04T10:34:59;97404.63;;;10.87;100.00
58467;BME280;44255;49.244;7.726;2022-11-04T10:37:27;97405.38;;;10.89;100.00
58467;BME280;44255;49.244;7.726;2022-11-04T10:39:57;97402.91;;;11.02;100.00
58467;BME280;44255;49.244;7.726;2022-11-04T10:42:24;97400.88;;;11.07;100.00
58467;BME280;44255;49.244;7.726;2022-11-04T10:44:50;97398.81;;;11.13;100.00
58467;BME280;44255;49.244;7.726;2022-11-04T10:47:40;97401.72;;;11.08;100.00
58467;BME280;44255;49.244;7.726;2022-11-04T10:52:36;97406.22;;;11.07;100.00
58467;BME280;44255;49.244;7.726;2022-11-04T10:55:03;97406.53;;;11.01;100.00
58467;BME280;44255;49.244;7.726;2022-11-04T10:57:37;97402.13;;;11.00;100.00
58467;BME280;44255;49.244;7.726;2022-11-04T11:00:04;97411.94;;;11.00;100.00
58467;BME280;44255;49.244;7.726;2022-11-04T11:07:42;97405.63;;;10.85;100.00
58467;BME280;44255;49.244;7.726;2022-11-04T11:10:25;97412.44;;;10.90;100.00
58467;BME280;44255;49.244;7.726;2022-11-04T11:15:37;97411.81;;;10.85;100.00
58467;BME280;44255;49.244;7.726;2022-11-04T11:18:16;97408.41;;;10.99;100.00
58467;BME280;44255;49.244;7.726;2022-11-04T11:20:47;97407.69;;;11.13;100.00
58467;BME280;44255;49.244;7.726;2022-11-04T11:23:34;97402.22;;;11.48;99.31
58467;BME280;44255;49.244;7.726;2022-11-04T11:26:01;97402.53;;;11.74;100.00
58467;BME280;44255;49.244;7.726;2022-11-04T11:28:28;97387.94;;;11.96;100.00
58467;BME280;44255;49.244;7.726;2022-11-04T11:30:58;97383.84;;;12.06;99.71
58467;BME280;44255;49.244;7.726;2022-11-04T11:33:27;97386.56;;;12.21;98.62
58467;BME280;44255;49.244;7.726;2022-11-04T11:36:05;97386.28;;;12.26;97.65
58467;BME280;44255;49.244;7.726;2022-11-04T11:38:36;97382.22;;;12.34;96.08
58467;BME280;44255;49.244;7.726;2022-11-04T11:41:09;97380.41;;;12.35;94.72
58467;BME280;44255;49.244;7.726;2022-11-04T11:43:38;97377.22;;;12.28;95.20
58467;BME280;44255;49.244;7.726;2022-11-04T11:46:05;97376.59;;;12.25;95.20
58467;BME280;44255;49.244;7.726;2022-11-04T11:48:42;97365.44;;;12.02;96.52
58467;BME280;44255;49.244;7.726;2022-11-04T11:56:32;97364.00;;;11.80;100.00
58467;BME280;44255;49.244;7.726;2022-11-04T12:04:32;97374.38;;;11.22;98.11
58467;BME280;44255;49.244;7.726;2022-11-04T12:15:04;97375.03;;;11.58;100.00
58467;BME280;44255;49.244;7.726;2022-11-04T12:20:35;97374.50;;;11.83;99.14
58467;BME280;44255;49.244;7.726;2022-11-04T12:25:50;97374.00;;;11.28;100.00
58467;BME280;44255;49.244;7.726;2022-11-04T12:28:32;97379.66;;;11.06;100.00
58467;BME280;44255;49.244;7.726;2022-11-04T12:34:10;97389.22;;;11.26;100.00
58467;BME280;44255;49.244;7.726;2022-11-04T12:36:55;97376.31;;;11.34;100.00
58467;BME280;44255;49.244;7.726;2022-11-04T12:39:49;97381.84;;;11.15;100.00
58467;BME280;44255;49.244;7.726;2022-11-04T12:45:10;97374.50;;;11.19;100.00
58467;BME280;44255;49.244;7.726;2022-11-04T12:47:42;97387.47;;;11.09;99.46
58467;BME280;44255;49.244;7.726;2022-11-04T12:53:14;97393.06;;;11.04;100.00
58467;BME280;44255;49.244;7.726;2022-11-04T12:58:41;97390.28;;;11.40;99.06
58467;BME280;44255;49.244;7.726;2022-11-04T13:01:22;97397.38;;;11.23;100.00
58467;BME280;44255;49.244;7.726;2022-11-04T13:04:00;97389.22;;;11.42;98.99
58467;BME280;44255;49.244;7.726;2022-11-04T13:06:37;97390.41;;;11.36;98.49
58467;BME280;44255;49.244;7.726;2022-11-04T13:09:10;97383.53;;;12.27;94.55
58467;BME280;44255;49.244;7.726;2022-11-04T13:11:44;97388.16;;;12.83;90.56
58467;BME280;44255;49.244;7.726;2022-11-04T13:14:19;97387.59;;;13.21;89.06
58467;BME280;44255;49.244;7.726;2022-11-04T13:16:49;97395.69;;;13.34;86.23
58467;BME280;44255;49.244;7.726;2022-11-04T13:19:29;97387.19;;;13.42;86.09
58467;BME280;44255;49.244;7.726;2022-11-04T13:22:00;97385.00;;;14.04;85.88
58467;BME280;44255;49.244;7.726;2022-11-04T13:24:29;97389.13;;;14.22;82.20
58467;BME280;44255;49.244;7.726;2022-11-04T13:27:02;97380.31;;;17.29;67.86
58467;BME280;44255;49.244;7.726;2022-11-04T13:29:29;97383.25;;;15.71;69.92
58467;BME280;44255;49.244;7.726;2022-11-04T13:32:04;97388.34;;;15.00;76.84
58467;BME280;44255;49.244;7.726;2022-11-04T13:34:54;97387.38;;;15.64;72.31
58467;BME280;44255;49.244;7.726;2022-11-04T13:40:05;97395.41;;;16.01;71.34
58467;BME280;44255;49.244;7.726;2022-11-04T13:45:11;97390.97;;;16.49;65.25
58467;BME280;44255;49.244;7.726;2022-11-04T13:47:46;97404.66;;;14.97;70.77
58467;BME280;44255;49.244;7.726;2022-11-04T13:52:58;97403.81;;;18.38;56.75
58467;BME280;44255;49.244;7.726;2022-11-04T13:55:23;97418.66;;;15.76;66.88
58467;BME280;44255;49.244;7.726;2022-11-04T13:57:53;97425.94;;;15.74;69.94
58467;BME280;44255;49.244;7.726;2022-11-04T14:00:27;97428.41;;;14.88;74.04
58467;BME280;44255;49.244;7.726;2022-11-04T14:03:00;97434.72;;;14.21;73.57
58467;BME280;44255;49.244;7.726;2022-11-04T14:06:00;97429.47;;;13.64;76.38
58467;BME280;44255;49.244;7.726;2022-11-04T14:08:27;97437.78;;;13.02;79.91
58467;BME280;44255;49.244;7.726;2022-11-04T14:18:32;97461.75;;;12.28;89.59
58467;BME280;44255;49.244;7.726;2022-11-04T14:21:04;97461.22;;;12.21;90.07
58467;BME280;44255;49.244;7.726;2022-11-04T14:23:31;97467.78;;;12.15;91.53
58467;BME280;44255;49.244;7.726;2022-11-04T14:26:05;97468.63;;;12.00;93.75
58467;BME280;44255;49.244;7.726;2022-11-04T14:28:32;97478.06;;;11.89;95.34
58467;BME280;44255;49.244;7.726;2022-11-04T14:30:58;97483.72;;;11.35;99.50
58467;BME280;44255;49.244;7.726;2022-11-04T14:33:32;97478.66;;;11.46;100.00
58467;BME280;44255;49.244;7.726;2022-11-04T14:38:39;97484.09;;;11.45;97.67
58467;BME280;44255;49.244;7.726;2022-11-04T14:43:47;97489.91;;;11.35;98.33
58467;BME280;44255;49.244;7.726;2022-11-04T14:46:24;97493.31;;;11.21;99.68
58467;BME280;44255;49.244;7.726;2022-11-04T14:48:53;97500.31;;;11.40;99.49
58467;BME280;44255;49.244;7.726;2022-11-04T14:51:26;97500.78;;;11.48;99.38
58467;BME280;44255;49.244;7.726;2022-11-04T14:54:03;97504.44;;;11.46;100.00
58467;BME280;44255;49.244;7.726;2022-11-04T14:56:29;97503.16;;;11.37;100.00
58467;BME280;44255;49.244;7.726;2022-11-04T14:59:00;97508.41;;;11.38;100.00
58467;BME280;44255;49.244;7.726;2022-11-04T15:01:28;97507.59;;;11.36;100.00
58467;BME280;44255;49.244;7.726;2022-11-04T15:03:56;97519.97;;;11.37;100.00
58467;BME280;44255;49.244;7.726;2022-11-04T15:06:28;97521.19;;;11.32;100.00
58467;BME280;44255;49.244;7.726;2022-11-04T15:08:55;97520.06;;;11.36;100.00
58467;BME280;44255;49.244;7.726;2022-11-04T15:11:28;97519.91;;;11.39;100.00
58467;BME280;44255;49.244;7.726;2022-11-04T15:14:16;97518.19;;;11.38;100.00
58467;BME280;44255;49.244;7.726;2022-11-04T15:16:44;97526.94;;;11.40;100.00
58467;BME280;44255;49.244;7.726;2022-11-04T15:19:14;97531.75;;;11.33;100.00
58467;BME280;44255;49.244;7.726;2022-11-04T15:21:46;97528.63;;;11.25;100.00
58467;BME280;44255;49.244;7.726;2022-11-04T15:24:13;97544.91;;;11.19;100.00
58467;BME280;44255;49.244;7.726;2022-11-04T15:26:48;97545.69;;;11.21;100.00
58467;BME280;44255;49.244;7.726;2022-11-04T15:29:15;97545.31;;;11.11;100.00
58467;BME280;44255;49.244;7.726;2022-11-04T15:31:53;97548.13;;;11.26;100.00
58467;BME280;44255;49.244;7.726;2022-11-04T15:34:19;97552.06;;;11.01;100.00
58467;BME280;44255;49.244;7.726;2022-11-04T15:36:45;97547.13;;;11.10;100.00
58467;BME280;44255;49.244;7.726;2022-11-04T15:39:20;97553.56;;;11.06;100.00
58467;BME280;44255;49.244;7.726;2022-11-04T15:41:47;97553.56;;;11.06;100.00
58467;BME280;44255;49.244;7.726;2022-11-04T15:44:34;97559.34;;;10.79;100.00
58467;BME280;44255;49.244;7.726;2022-11-04T15:47:47;97563.34;;;10.71;100.00
58467;BME280;44255;49.244;7.726;2022-11-04T15:49:49;97566.72;;;10.74;100.00
58467;BME280;44255;49.244;7.726;2022-11-04T15:52:29;97571.06;;;10.58;100.00
58467;BME280;44255;49.244;7.726;2022-11-04T15:54:56;97570.91;;;10.61;100.00
58467;BME280;44255;49.244;7.726;2022-11-04T15:57:29;97566.19;;;10.48;100.00
58467;BME280;44255;49.244;7.726;2022-11-04T16:00:00;97583.81;;;10.32;100.00
58467;BME280;44255;49.244;7.726;2022-11-04T16:02:31;97577.22;;;10.21;100.00
58467;BME280;44255;49.244;7.726;2022-11-04T16:07:43;97581.47;;;10.06;100.00
58467;BME280;44255;49.244;7.726;2022-11-04T16:10:31;97583.84;;;9.93;100.00
58467;BME280;44255;49.244;7.726;2022-11-04T16:17:58;97600.56;;;9.95;100.00
58467;BME280;44255;49.244;7.726;2022-11-04T16:20:24;97599.84;;;9.92;100.00
58467;BME280;44255;49.244;7.726;2022-11-04T16:22:59;97609.78;;;9.88;100.00
58467;BME280;44255;49.244;7.726;2022-11-04T16:25:29;97603.38;;;9.92;100.00
58467;BME280;44255;49.244;7.726;2022-11-04T16:27:56;97607.19;;;9.87;100.00
58467;BME280;44255;49.244;7.726;2022-11-04T16:30:22;97600.84;;;9.70;100.00
58467;BME280;44255;49.244;7.726;2022-11-04T16:32:53;97612.94;;;9.77;100.00
58467;BME280;44255;49.244;7.726;2022-11-04T16:35:21;97621.44;;;9.84;100.00
58467;BME280;44255;49.244;7.726;2022-11-04T16:37:47;97625.63;;;9.90;100.00
58467;BME280;44255;49.244;7.726;2022-11-04T16:40:13;97627.16;;;9.95;100.00
58467;BME280;44255;49.244;7.726;2022-11-04T16:42:40;97628.22;;;9.91;100.00
58467;BME280;44255;49.244;7.726;2022-11-04T16:45:06;97626.34;;;9.93;100.00
58467;BME280;44255;49.244;7.726;2022-11-04T16:47:37;97636.41;;;9.87;100.00
58467;BME280;44255;49.244;7.726;2022-11-04T16:50:11;97638.56;;;9.78;100.00
58467;BME280;44255;49.244;7.726;2022-11-04T16:52:38;97643.50;;;9.67;100.00
58467;BME280;44255;49.244;7.726;2022-11-04T16:55:03;97646.16;;;9.67;100.00
58467;BME280;44255;49.244;7.726;2022-11-04T16:57:29;97649.34;;;9.54;100.00
58467;BME280;44255;49.244;7.726;2022-11-04T16:59:54;97654.97;;;9.47;100.00
58467;BME280;44255;49.244;7.726;2022-11-04T17:02:29;97662.63;;;9.54;100.00
58467;BME280;44255;49.244;7.726;2022-11-04T17:04:55;97661.97;;;9.49;100.00
58467;BME280;44255;49.244;7.726;2022-11-04T17:07:20;97673.44;;;9.50;100.00
58467;BME280;44255;49.244;7.726;2022-11-04T17:09:46;97679.94;;;9.43;100.00
58467;BME280;44255;49.244;7.726;2022-11-04T17:12:11;97680.69;;;9.46;100.00
58467;BME280;44255;49.244;7.726;2022-11-04T17:14:37;97680.56;;;9.49;100.00
58467;BME280;44255;49.244;7.726;2022-11-04T17:17:03;97685.88;;;9.49;100.00
58467;BME280;44255;49.244;7.726;2022-11-04T17:19:29;97686.72;;;9.50;100.00
58467;BME280;44255;49.244;7.726;2022-11-04T17:21:55;97684.97;;;9.49;100.00
58467;BME280;44255;49.244;7.726;2022-11-04T17:24:20;97693.09;;;9.46;100.00
58467;BME280;44255;49.244;7.726;2022-11-04T17:26:45;97691.91;;;9.53;100.00
58467;BME280;44255;49.244;7.726;2022-11-04T17:29:11;97696.47;;;9.49;100.00
58467;BME280;44255;49.244;7.726;2022-11-04T17:31:36;97697.13;;;9.54;100.00
58467;BME280;44255;49.244;7.726;2022-11-04T17:34:02;97698.16;;;9.52;100.00
58467;BME280;44255;49.244;7.726;2022-11-04T17:36:27;97703.25;;;9.57;100.00
58467;BME280;44255;49.244;7.726;2022-11-04T17:38:54;97710.16;;;9.61;100.00
58467;BME280;44255;49.244;7.726;2022-11-04T17:41:19;97718.13;;;9.61;100.00
58467;BME280;44255;49.244;7.726;2022-11-04T17:44:03;97719.06;;;9.60;100.00
58467;BME280;44255;49.244;7.726;2022-11-04T17:46:30;97723.19;;;9.46;100.00
58467;BME280;44255;49.244;7.726;2022-11-04T17:49:06;97731.13;;;9.46;100.00
58467;BME280;44255;49.244;7.726;2022-11-04T17:51:32;97730.13;;;9.49;100.00
58467;BME280;44255;49.244;7.726;2022-11-04T17:53:57;97733.59;;;9.51;100.00
58467;BME280;44255;49.244;7.726;2022-11-04T17:56:23;97746.94;;;9.49;100.00
58467;BME280;44255;49.244;7.726;2022-11-04T17:58:49;97742.56;;;9.48;100.00
58467;BME280;44255;49.244;7.726;2022-11-04T18:01:16;97751.78;;;9.60;100.00
58467;BME280;44255;49.244;7.726;2022-11-04T18:03:42;97750.00;;;9.61;100.00
58467;BME280;44255;49.244;7.726;2022-11-04T18:06:10;97753.38;;;9.64;100.00
58467;BME280;44255;49.244;7.726;2022-11-04T18:08:35;97759.72;;;9.62;100.00
58467;BME280;44255;49.244;7.726;2022-11-04T18:11:04;97762.22;;;9.65;100.00
58467;BME280;44255;49.244;7.726;2022-11-04T18:13:29;97755.38;;;9.59;100.00
58467;BME280;44255;49.244;7.726;2022-11-04T18:15:54;97760.03;;;9.54;100.00
58467;BME280;44255;49.244;7.726;2022-11-04T18:18:20;97762.69;;;9.54;100.00
58467;BME280;44255;49.244;7.726;2022-11-04T18:20:46;97762.00;;;9.49;100.00
58467;BME280;44255;49.244;7.726;2022-11-04T18:23:12;97770.88;;;9.48;100.00
58467;BME280;44255;49.244;7.726;2022-11-04T18:25:39;97785.38;;;9.41;100.00
58467;BME280;44255;49.244;7.726;2022-11-04T18:28:04;97782.75;;;9.39;100.00
58467;BME280;44255;49.244;7.726;2022-11-04T18:30:30;97789.13;;;9.35;100.00
58467;BME280;44255;49.244;7.726;2022-11-04T18:32:55;97793.09;;;9.24;100.00
58467;BME280;44255;49.244;7.726;2022-11-04T18:35:20;97790.31;;;9.28;100.00
58467;BME280;44255;49.244;7.726;2022-11-04T18:37:46;97798.28;;;9.28;100.00
58467;BME280;44255;49.244;7.726;2022-11-04T18:40:11;97801.97;;;9.23;100.00
58467;BME280;44255;49.244;7.726;2022-11-04T18:42:36;97800.97;;;9.04;100.00
58467;BME280;44255;49.244;7.726;2022-11-04T18:45:02;97804.16;;;8.91;100.00
58467;BME280;44255;49.244;7.726;2022-11-04T18:47:28;97799.03;;;9.09;100.00
58467;BME280;44255;49.244;7.726;2022-11-04T18:49:53;97808.22;;;9.00;100.00
58467;BME280;44255;49.244;7.726;2022-11-04T18:52:18;97806.38;;;9.02;100.00
58467;BME280;44255;49.244;7.726;2022-11-04T18:54:44;97809.06;;;9.01;100.00
58467;BME280;44255;49.244;7.726;2022-11-04T18:57:09;97816.22;;;8.99;100.00
58467;BME280;44255;49.244;7.726;2022-11-04T18:59:36;97811.22;;;8.91;100.00
58467;BME280;44255;49.244;7.726;2022-11-04T19:02:01;97802.59;;;8.86;100.00
58467;BME280;44255;49.244;7.726;2022-11-04T19:04:26;97806.78;;;8.91;100.00
58467;BME280;44255;49.244;7.726;2022-11-04T19:06:52;97807.38;;;8.76;100.00
58467;BME280;44255;49.244;7.726;2022-11-04T19:09:17;97810.53;;;8.86;100.00
58467;BME280;44255;49.244;7.726;2022-11-04T19:11:42;97816.81;;;8.83;100.00
58467;BME280;44255;49.244;7.726;2022-11-04T19:14:11;97818.72;;;8.79;100.00